createdAt,value
2018-11-27T00:01:53.311Z,2.90
2018-11-27T00:04:21.649Z,2.90
2018-11-27T00:06:51.069Z,2.90
2018-11-27T00:09:19.102Z,2.90
2018-11-27T00:11:47.148Z,2.90
2018-11-27T00:14:14.996Z,3.00
2018-11-27T00:16:43.025Z,2.90
2018-11-27T00:19:10.979Z,2.90
2018-11-27T00:21:38.939Z,3.00
2018-11-27T00:24:07.961Z,3.00
2018-11-27T00:26:37.090Z,2.90
2018-11-27T00:29:05.167Z,2.90
2018-11-27T00:31:33.038Z,2.90
2018-11-27T00:34:02.995Z,2.90
2018-11-27T00:36:31.596Z,2.90
2018-11-27T00:38:59.434Z,2.90
2018-11-27T00:41:27.507Z,2.90
2018-11-27T00:43:55.651Z,2.80
2018-11-27T00:46:23.580Z,2.80
2018-11-27T00:48:52.148Z,2.90
2018-11-27T00:51:20.033Z,2.80
2018-11-27T00:53:49.383Z,2.90
2018-11-27T00:56:17.293Z,2.80
2018-11-27T00:58:45.181Z,2.80
2018-11-27T01:01:13.072Z,2.90
2018-11-27T01:03:41.016Z,2.90
2018-11-27T01:06:09.012Z,2.90
2018-11-27T01:08:36.877Z,2.90
2018-11-27T01:11:05.698Z,2.80
2018-11-27T01:13:35.599Z,2.80
2018-11-27T01:16:03.689Z,2.90
2018-11-27T01:18:32.212Z,2.80
2018-11-27T01:21:00.197Z,2.80
2018-11-27T01:23:31.507Z,2.80
2018-11-27T01:25:59.450Z,2.80
2018-11-27T01:28:27.335Z,2.80
2018-11-27T01:30:55.341Z,2.80
2018-11-27T01:33:23.274Z,2.70
2018-11-27T01:35:51.308Z,2.90
2018-11-27T01:38:19.272Z,2.80
2018-11-27T01:40:47.205Z,2.80
2018-11-27T01:43:15.316Z,2.80
2018-11-27T01:45:44.868Z,2.80
2018-11-27T01:48:12.798Z,2.90
2018-11-27T01:50:40.787Z,2.80
2018-11-27T01:53:08.667Z,2.70
2018-11-27T01:55:37.237Z,2.80
2018-11-27T01:58:05.604Z,2.80
2018-11-27T02:00:34.102Z,2.80
2018-11-27T02:03:02.714Z,2.80
2018-11-27T02:05:32.216Z,2.80
2018-11-27T02:08:00.229Z,2.70
2018-11-27T02:10:28.523Z,2.70
2018-11-27T02:13:01.250Z,2.70
2018-11-27T02:15:28.277Z,2.70
2018-11-27T02:17:56.988Z,2.70
2018-11-27T02:20:25.218Z,2.60
2018-11-27T02:22:54.365Z,2.60
2018-11-27T02:25:24.428Z,2.70
2018-11-27T02:27:52.376Z,2.70
2018-11-27T02:30:21.811Z,2.60
2018-11-27T02:32:50.365Z,2.50
2018-11-27T02:35:24.707Z,2.50
2018-11-27T02:37:55.798Z,2.60
2018-11-27T02:40:23.743Z,2.50
2018-11-27T02:42:51.663Z,2.50
2018-11-27T02:45:20.753Z,2.50
2018-11-27T02:47:49.807Z,2.40
2018-11-27T02:50:18.866Z,2.40
2018-11-27T02:52:46.869Z,2.40
2018-11-27T02:55:19.116Z,2.50
2018-11-27T02:57:47.166Z,2.50
2018-11-27T03:00:28.013Z,2.50
2018-11-27T03:02:57.278Z,2.50
2018-11-27T03:05:28.398Z,2.50
2018-11-27T03:07:56.801Z,2.50
2018-11-27T03:10:24.764Z,2.50
2018-11-27T03:12:52.697Z,2.50
2018-11-27T03:15:20.654Z,2.50
2018-11-27T03:17:48.537Z,2.50
2018-11-27T03:20:18.142Z,2.40
2018-11-27T03:22:46.196Z,2.50
2018-11-27T03:25:16.155Z,2.50
2018-11-27T03:27:45.140Z,2.50
2018-11-27T03:30:15.946Z,2.40
2018-11-27T03:32:44.226Z,2.40
2018-11-27T03:35:15.841Z,2.40
2018-11-27T03:37:44.739Z,2.40
2018-11-27T03:40:18.439Z,2.40
2018-11-27T03:42:46.373Z,2.40
2018-11-27T03:45:15.784Z,2.40
2018-11-27T03:47:43.776Z,2.40
2018-11-27T03:50:23.777Z,2.50
2018-11-27T03:52:55.701Z,2.50
2018-11-27T03:55:26.044Z,2.30
2018-11-27T03:57:54.936Z,2.40
2018-11-27T04:00:28.546Z,2.40
2018-11-27T04:03:06.328Z,2.40
2018-11-27T04:05:37.607Z,2.30
2018-11-27T04:08:08.892Z,2.30
2018-11-27T04:10:40.522Z,2.40
2018-11-27T04:13:12.819Z,2.40
2018-11-27T04:15:42.076Z,2.30
2018-11-27T04:18:10.055Z,2.20
2018-11-27T04:20:38.108Z,2.20
2018-11-27T04:23:06.203Z,2.40
2018-11-27T04:25:34.118Z,2.40
2018-11-27T04:28:02.087Z,2.20
2018-11-27T04:30:31.961Z,2.30
2018-11-27T04:33:02.022Z,2.30
2018-11-27T04:35:30.079Z,2.20
2018-11-27T04:37:59.605Z,2.30
2018-11-27T04:40:26.759Z,2.40
2018-11-27T04:42:57.319Z,2.40
2018-11-27T04:45:26.156Z,2.30
2018-11-27T04:47:54.190Z,2.40
2018-11-27T04:50:22.557Z,2.20
2018-11-27T04:52:51.550Z,2.30
2018-11-27T04:55:20.406Z,2.30
2018-11-27T04:57:51.128Z,2.10
2018-11-27T05:00:25.817Z,2.10
2018-11-27T05:02:56.085Z,2.30
2018-11-27T05:05:27.218Z,2.30
2018-11-27T05:07:55.101Z,2.30
2018-11-27T05:10:24.213Z,2.30
2018-11-27T05:12:52.272Z,2.30
2018-11-27T05:15:22.400Z,2.30
2018-11-27T05:17:51.640Z,2.30
2018-11-27T05:20:19.548Z,2.20
2018-11-27T05:22:47.473Z,2.20
2018-11-27T05:25:17.370Z,2.20
2018-11-27T05:27:48.880Z,2.20
2018-11-27T05:30:18.592Z,2.20
2018-11-27T05:33:00.571Z,2.20
2018-11-27T05:35:30.853Z,2.20
2018-11-27T05:38:01.486Z,2.20
2018-11-27T05:40:30.177Z,2.20
2018-11-27T05:43:02.607Z,2.20
2018-11-27T05:45:33.221Z,2.20
2018-11-27T05:48:01.658Z,2.10
2018-11-27T05:50:30.036Z,2.20
2018-11-27T05:52:58.672Z,2.20
2018-11-27T05:55:26.700Z,2.10
2018-11-27T05:57:55.701Z,2.20
2018-11-27T06:00:29.831Z,2.00
2018-11-27T06:03:01.551Z,2.10
2018-11-27T06:05:31.065Z,2.10
2018-11-27T06:07:59.023Z,2.10
2018-11-27T06:10:28.748Z,2.20
2018-11-27T06:12:58.916Z,2.10
2018-11-27T06:19:16.174Z,2.10
2018-11-27T06:21:49.030Z,2.10
2018-11-27T06:24:20.911Z,2.20
2018-11-27T06:27:03.499Z,2.10
2018-11-27T06:29:32.182Z,2.20
2018-11-27T06:32:02.110Z,2.10
2018-11-27T06:34:39.420Z,2.00
2018-11-27T06:41:10.875Z,2.10
2018-11-27T06:48:02.183Z,2.10
2018-11-27T06:50:59.855Z,2.10
2018-11-27T06:53:28.560Z,2.20
2018-11-27T06:56:04.348Z,2.00
2018-11-27T06:58:32.468Z,2.00
2018-11-27T07:01:04.281Z,2.00
2018-11-27T07:03:48.377Z,2.00
2018-11-27T07:09:26.173Z,2.10
2018-11-27T07:11:57.919Z,2.10
2018-11-27T07:14:26.531Z,2.10
2018-11-27T07:16:56.793Z,2.10
2018-11-27T07:19:25.936Z,2.10
2018-11-27T07:21:53.853Z,2.10
2018-11-27T07:24:21.889Z,2.10
2018-11-27T07:26:52.861Z,2.00
2018-11-27T07:29:18.648Z,1.90
2018-11-27T07:31:47.737Z,2.00
2018-11-27T07:34:20.888Z,2.00
2018-11-27T07:36:49.724Z,2.10
2018-11-27T07:39:17.848Z,2.10
2018-11-27T07:41:45.807Z,2.10
2018-11-27T07:44:13.733Z,2.10
2018-11-27T07:47:02.314Z,1.80
2018-11-27T07:49:49.242Z,2.10
2018-11-27T07:52:36.454Z,2.10
2018-11-27T07:55:17.146Z,2.10
2018-11-27T07:57:57.932Z,2.00
2018-11-27T08:00:27.644Z,2.00
2018-11-27T08:02:57.708Z,2.00
2018-11-27T08:05:48.020Z,2.00
2018-11-27T08:08:41.467Z,2.00
2018-11-27T08:11:28.151Z,2.00
2018-11-27T08:13:58.558Z,2.10
2018-11-27T08:16:32.089Z,2.10
2018-11-27T08:19:07.849Z,2.10
2018-11-27T08:21:35.750Z,2.10
2018-11-27T08:24:04.537Z,2.10
2018-11-27T08:26:35.282Z,2.10
2018-11-27T08:29:04.269Z,2.20
2018-11-27T08:31:32.909Z,2.20
2018-11-27T08:34:01.507Z,1.90
2018-11-27T08:36:33.870Z,2.10
2018-11-27T08:39:38.576Z,2.00
2018-11-27T08:42:23.749Z,2.10
2018-11-27T08:48:30.469Z,2.20
2018-11-27T08:51:06.585Z,2.20
2018-11-27T08:53:35.254Z,2.20
2018-11-27T08:56:03.579Z,2.30
2018-11-27T08:58:33.380Z,2.30
2018-11-27T09:01:02.403Z,2.30
2018-11-27T09:03:35.718Z,2.20
2018-11-27T09:06:14.502Z,2.10
2018-11-27T09:09:02.569Z,2.30
2018-11-27T09:15:09.355Z,2.30
2018-11-27T09:17:39.589Z,2.30
2018-11-27T09:20:32.600Z,2.30
2018-11-27T09:23:39.702Z,2.20
2018-11-27T09:29:15.268Z,2.40
2018-11-27T09:31:45.117Z,2.20
2018-11-27T09:34:29.200Z,2.40
2018-11-27T09:39:47.742Z,2.40
2018-11-27T09:42:19.012Z,2.30
2018-11-27T09:44:54.365Z,2.30
2018-11-27T09:47:38.553Z,2.20
2018-11-27T09:50:10.063Z,2.40
2018-11-27T09:52:41.924Z,2.20
2018-11-27T09:55:19.917Z,2.20
2018-11-27T09:57:51.601Z,2.30
2018-11-27T10:00:28.486Z,2.30
2018-11-27T10:03:09.978Z,2.30
2018-11-27T10:05:46.790Z,2.20
2018-11-27T10:08:29.692Z,2.20
2018-11-27T10:11:18.841Z,2.10
2018-11-27T10:14:10.131Z,2.40
2018-11-27T10:16:41.006Z,2.30
2018-11-27T10:19:10.280Z,2.30
2018-11-27T10:21:50.753Z,2.30
2018-11-27T10:24:22.306Z,2.20
2018-11-27T10:26:50.893Z,2.40
2018-11-27T10:29:18.829Z,2.30
2018-11-27T10:32:11.615Z,2.30
2018-11-27T10:34:44.489Z,2.40
2018-11-27T10:37:20.659Z,2.40
2018-11-27T10:39:49.895Z,2.50
2018-11-27T10:42:19.232Z,2.60
2018-11-27T10:44:52.320Z,2.40
2018-11-27T10:47:37.874Z,2.40
2018-11-27T11:01:53.999Z,2.40
2018-11-27T11:11:59.407Z,2.70
2018-11-27T11:14:37.309Z,2.60
2018-11-27T11:17:24.764Z,2.60
2018-11-27T11:19:52.751Z,2.60
2018-11-27T11:22:21.748Z,2.70
2018-11-27T11:24:49.774Z,2.60
2018-11-27T11:27:20.836Z,2.60
2018-11-27T11:30:13.103Z,2.70
2018-11-27T11:36:31.265Z,2.70
2018-11-27T11:39:14.007Z,2.60
2018-11-27T11:41:41.999Z,2.60
2018-11-27T11:44:10.707Z,2.50
2018-11-27T11:46:41.741Z,2.60
2018-11-27T11:49:12.350Z,2.70
2018-11-27T11:51:40.250Z,2.70
2018-11-27T11:54:10.965Z,2.70
2018-11-27T11:57:05.271Z,2.60
2018-11-27T11:59:43.940Z,2.40
2018-11-27T12:02:14.553Z,2.50
2018-11-27T12:04:43.976Z,2.60
2018-11-27T12:07:12.809Z,2.70
2018-11-27T12:09:43.106Z,2.70
2018-11-27T12:12:11.506Z,2.60
2018-11-27T12:14:43.587Z,2.60
2018-11-27T12:17:39.343Z,2.70
2018-11-27T12:20:48.382Z,2.80
2018-11-27T12:26:42.366Z,2.70
2018-11-27T12:29:16.493Z,2.60
2018-11-27T12:31:51.082Z,2.60
2018-11-27T12:35:22.335Z,2.80
2018-11-27T12:38:12.523Z,2.80
2018-11-27T12:40:46.908Z,2.80
2018-11-27T12:43:29.571Z,2.80
2018-11-27T12:45:58.661Z,2.70
2018-11-27T12:48:32.887Z,2.70
2018-11-27T12:51:02.422Z,2.80
2018-11-27T12:53:30.439Z,2.50
2018-11-27T12:56:03.159Z,2.50
2018-11-27T12:58:31.206Z,2.70
2018-11-27T13:10:42.860Z,2.60
2018-11-27T13:13:12.322Z,2.70
2018-11-27T13:16:07.333Z,2.90
2018-11-27T13:18:56.633Z,2.90
2018-11-27T13:21:39.808Z,2.90
2018-11-27T13:24:24.853Z,2.90
2018-11-27T13:26:56.669Z,2.90
2018-11-27T13:29:44.088Z,3.00
2018-11-27T13:32:44.756Z,3.00
2018-11-27T13:36:05.832Z,3.00
2018-11-27T13:38:42.682Z,3.00
2018-11-27T13:41:27.064Z,3.00
2018-11-27T13:44:01.259Z,3.00
2018-11-27T13:46:43.132Z,3.10
2018-11-27T13:49:23.035Z,3.00
2018-11-27T13:51:54.172Z,3.10
2018-11-27T13:54:25.178Z,3.20
2018-11-27T13:56:55.689Z,3.30
2018-11-27T14:02:11.447Z,3.20
2018-11-27T14:04:41.113Z,3.20
2018-11-27T14:07:44.482Z,3.20
2018-11-27T14:10:17.446Z,3.10
2018-11-27T14:13:04.807Z,3.00
2018-11-27T14:15:41.772Z,2.90
2018-11-27T14:18:51.800Z,2.90
2018-11-27T14:24:41.551Z,3.10
2018-11-27T14:27:45.805Z,3.10
2018-11-27T14:30:31.709Z,2.90
2018-11-27T14:33:31.577Z,3.00
2018-11-27T14:36:05.529Z,3.10
2018-11-27T14:38:34.100Z,3.00
2018-11-27T14:44:43.098Z,3.00
2018-11-27T14:47:11.711Z,3.00
2018-11-27T14:49:42.447Z,3.00
2018-11-27T14:52:48.144Z,3.00
2018-11-27T14:55:38.019Z,3.00
2018-11-27T14:58:06.677Z,2.90
2018-11-27T15:00:39.756Z,2.90
2018-11-27T15:03:50.906Z,3.00
2018-11-27T15:06:21.328Z,2.90
2018-11-27T15:08:51.176Z,3.00
2018-11-27T15:11:20.630Z,2.90
2018-11-27T15:13:53.881Z,2.80
2018-11-27T15:16:24.481Z,2.80
2018-11-27T15:19:24.235Z,2.70
2018-11-27T15:22:19.422Z,2.80
2018-11-27T15:24:50.832Z,2.90
2018-11-27T15:27:21.771Z,2.90
2018-11-27T15:30:50.696Z,2.80
2018-11-27T15:40:03.174Z,2.80
2018-11-27T15:42:45.445Z,2.80
2018-11-27T15:45:23.431Z,2.80
2018-11-27T15:48:07.055Z,2.60
2018-11-27T15:50:43.546Z,2.60
2018-11-27T15:53:37.762Z,2.60
2018-11-27T15:56:40.184Z,2.70
2018-11-27T16:02:22.212Z,2.70
2018-11-27T16:04:53.700Z,2.70
2018-11-27T16:07:23.031Z,2.60
2018-11-27T16:09:52.938Z,2.60
2018-11-27T16:12:23.421Z,2.50
2018-11-27T16:15:16.904Z,2.60
2018-11-27T16:17:46.250Z,2.60
2018-11-27T16:20:36.627Z,2.60
2018-11-27T16:23:24.623Z,2.60
2018-11-27T16:29:45.635Z,2.50
2018-11-27T16:32:37.884Z,2.50
2018-11-27T16:35:10.375Z,2.60
2018-11-27T16:37:43.468Z,2.60
2018-11-27T16:43:45.017Z,2.50
2018-11-27T16:46:13.633Z,2.50
2018-11-27T16:48:50.613Z,2.50
2018-11-27T16:51:24.508Z,2.50
2018-11-27T16:54:27.383Z,2.60
2018-11-27T17:03:39.556Z,2.60
2018-11-27T17:06:10.749Z,2.50
2018-11-27T17:08:39.146Z,2.40
2018-11-27T17:11:07.133Z,2.40
2018-11-27T17:13:49.070Z,2.40
2018-11-27T17:16:41.932Z,2.40
2018-11-27T17:19:11.377Z,2.30
2018-11-27T17:21:54.829Z,2.30
2018-11-27T17:24:41.452Z,2.30
2018-11-27T17:30:51.072Z,2.30
2018-11-27T17:33:35.032Z,2.20
2018-11-27T17:36:08.059Z,2.10
2018-11-27T17:38:41.097Z,2.20
2018-11-27T17:41:09.561Z,2.20
2018-11-27T17:46:57.767Z,2.20
2018-11-27T17:49:26.395Z,2.20
2018-11-27T17:51:55.660Z,2.20
2018-11-27T17:54:47.696Z,2.20
2018-11-27T17:57:36.462Z,2.10
2018-11-27T18:00:20.137Z,2.10
2018-11-27T18:07:00.770Z,2.10
2018-11-27T18:09:31.888Z,2.20
2018-11-27T18:12:01.329Z,2.10
2018-11-27T18:14:32.720Z,2.10
2018-11-27T18:17:11.205Z,2.10
2018-11-27T18:19:41.392Z,1.90
2018-11-27T18:22:28.392Z,1.90
2018-11-27T18:25:32.443Z,1.90
2018-11-27T18:28:36.503Z,2.00
2018-11-27T18:34:43.433Z,2.00
2018-11-27T18:40:21.077Z,2.10
2018-11-27T18:43:17.487Z,2.10
2018-11-27T18:46:14.454Z,2.00
2018-11-27T18:49:07.617Z,1.80
2018-11-27T18:51:50.553Z,1.90
2018-11-27T18:54:23.610Z,1.90
2018-11-27T18:56:59.445Z,1.90
2018-11-27T18:59:33.397Z,2.00
2018-11-27T19:02:03.249Z,2.10
2018-11-27T19:04:47.471Z,2.10
2018-11-27T19:13:51.329Z,1.80
2018-11-27T19:16:39.024Z,1.90
2018-11-27T19:19:11.749Z,1.80
2018-11-27T19:21:45.968Z,1.80
2018-11-27T19:24:15.772Z,1.80
2018-11-27T19:26:49.025Z,1.80
2018-11-27T19:29:22.578Z,1.90
2018-11-27T19:32:06.271Z,1.90
2018-11-27T19:34:37.105Z,1.90
2018-11-27T19:37:05.532Z,1.90
2018-11-27T19:39:34.606Z,2.00
2018-11-27T19:42:14.631Z,1.80
2018-11-27T19:44:47.887Z,1.90
2018-11-27T19:47:16.154Z,2.00
2018-11-27T19:49:55.192Z,2.00
2018-11-27T19:52:24.035Z,2.10
2018-11-27T19:55:00.580Z,2.00
2018-11-27T19:57:29.574Z,2.00
2018-11-27T19:59:58.671Z,2.00
2018-11-27T20:02:29.415Z,2.00
2018-11-27T20:08:37.135Z,2.00
2018-11-27T20:11:09.154Z,2.10
2018-11-27T20:13:40.875Z,2.10
2018-11-27T20:16:09.184Z,2.10
2018-11-27T20:18:37.245Z,1.80
2018-11-27T20:21:10.389Z,2.00
2018-11-27T20:23:43.523Z,2.00
2018-11-27T20:26:12.368Z,2.10
2018-11-27T20:28:41.497Z,2.20
2018-11-27T20:31:14.437Z,2.10
2018-11-27T20:33:49.428Z,2.10
2018-11-27T20:36:19.964Z,2.10
2018-11-27T20:38:53.825Z,2.10
2018-11-27T20:44:47.707Z,2.10
2018-11-27T20:51:24.423Z,2.10
2018-11-27T20:53:57.369Z,2.00
2018-11-27T20:56:26.459Z,2.00
2018-11-27T20:59:05.589Z,1.90
2018-11-27T21:04:47.509Z,2.00
2018-11-27T21:07:35.854Z,1.90
2018-11-27T21:14:34.534Z,1.90
2018-11-27T21:17:10.918Z,2.00
2018-11-27T21:19:47.130Z,1.90
2018-11-27T21:22:21.229Z,1.90
2018-11-27T21:24:57.503Z,1.90
2018-11-27T21:27:31.052Z,2.00
2018-11-27T21:30:02.214Z,1.80
2018-11-27T21:33:01.691Z,1.70
2018-11-27T21:36:08.742Z,1.80
2018-11-27T21:38:41.496Z,1.90
2018-11-27T21:41:11.620Z,1.90
2018-11-27T21:44:05.931Z,1.90
2018-11-27T21:49:28.343Z,1.90
2018-11-27T21:52:12.580Z,1.90
2018-11-27T21:54:59.974Z,1.90
2018-11-27T21:57:30.247Z,1.90
2018-11-27T22:00:02.180Z,2.00
2018-11-27T22:02:33.075Z,1.90
2018-11-27T22:05:04.863Z,1.90
2018-11-27T22:07:35.081Z,1.80
2018-11-27T22:10:08.050Z,1.70
2018-11-27T22:12:45.113Z,1.80
2018-11-27T22:15:26.019Z,1.90
2018-11-27T22:17:55.307Z,1.80
2018-11-27T22:20:28.256Z,1.80
2018-11-27T22:23:02.920Z,1.90
2018-11-27T22:28:12.695Z,2.00
2018-11-27T22:30:40.923Z,2.00
2018-11-27T22:33:12.342Z,2.10
2018-11-27T22:35:40.342Z,2.20
2018-11-27T22:38:11.616Z,2.30
2018-11-27T22:40:39.566Z,2.30
2018-11-27T22:43:08.153Z,2.30
2018-11-27T22:45:40.007Z,2.20
2018-11-27T22:48:11.063Z,2.20
2018-11-27T22:50:39.163Z,2.20
2018-11-27T22:53:07.997Z,2.20
2018-11-27T22:55:36.327Z,2.20
2018-11-27T22:58:05.391Z,2.20
2018-11-27T23:00:40.249Z,2.10
2018-11-27T23:03:09.202Z,2.00
2018-11-27T23:05:39.620Z,2.20
2018-11-27T23:08:19.683Z,2.20
2018-11-27T23:10:50.280Z,2.20
2018-11-27T23:13:28.024Z,2.20
2018-11-27T23:15:56.517Z,2.20
2018-11-27T23:18:24.660Z,2.20
2018-11-27T23:20:52.607Z,2.20
2018-11-27T23:23:20.709Z,2.00
2018-11-27T23:25:50.496Z,1.90
2018-11-27T23:28:20.584Z,1.90
2018-11-27T23:30:49.560Z,1.80
2018-11-27T23:33:20.173Z,1.70
2018-11-27T23:35:48.969Z,1.80
2018-11-27T23:38:17.920Z,1.90
2018-11-27T23:40:47.678Z,1.90
2018-11-27T23:43:17.773Z,2.00
2018-11-27T23:45:45.811Z,2.00
2018-11-27T23:48:15.241Z,1.80
2018-11-27T23:50:43.669Z,1.90
2018-11-27T23:53:12.638Z,1.90
2018-11-27T23:55:40.597Z,1.80
2018-11-27T23:58:09.342Z,1.90
